Don's Testing Zone


Current Conditions
weather data
source:

National Weather Service
Cloudy Little Rock, AR
Cloudy, 48°F
Sunday, February 25, 2018 8:53 PM CST
Temperature: 48°F/9°C
Humidity: 81%
Barometer: 30.12in/1020.0mb Barometer Steady
Wind: N at 13mph/20kmh
View other cities:
Searcy | Little Rock | Hot Springs | Russellville | More...
Astronomical Conditions (Clear Sky Clock)
Searcy Clear Sky Clock
Find more weather in Little Rock, AR
    

Radar Images

NWS
    Wx Underground

KARK
   

NWS METAR weather data

ADDS - METARS form results





Aviation Digital Data Service (ADDS) Output produced by METARs form (0313 UTC 26 February 2018) found at http://aviationweather.gov/adds/metars/ 

KLIT 260253Z 06004KT 10SM OVC029 09/06 A3012 RMK AO2 SLP200 T00890056 51011 $

KLIT 260223Z 06004KT 10SM OVC029 09/05 A3010 RMK AO2 T00890050 $

KLIT 260153Z 05004KT 10SM SCT150 BKN250 08/05 A3010 RMK AO2 SLP196 T00830050 $

KLIT 260053Z 11004KT 10SM BKN150 BKN250 09/04 A3010 RMK AO2 SLP196 T00940044 $

KLIT 252353Z 10004KT 10SM FEW100 BKN150 BKN250 10/04 A3008 RMK AO2 SLP190T01000039 10122 20100 55004 $

KLIT 252253Z 06006KT 10SM FEW100 BKN150 BKN200 11/03 A3007 RMK AO2 SLP185T01060028 $

KLIT 252153Z 05007KT 10SM SCT100 BKN150 12/03 A3009 RMK AO2 SLP190 T01170028 $

KLIT 252053Z 06006KT 10SM BKN150 OVC250 12/03 A3010 RMK AO2 SLP194 OCNL BINOVCT01170028 58011 $

KLIT 251953Z 13005KT 10SM SCT150 OVC250 11/03 A3012 RMK AO2 SLP202 VIRGA DSNTSE-S T01110028 $

KLIT 251853Z 10003KT 10SM SCT150 OVC250 11/02 A3013 RMK AO2 SLP206 VIRGA E-ST01060022 $

KLIT 251753Z 10007KT 10SM FEW100 BKN130 OVC250 11/01 A3013 RMK AO2 SLP205 BINOVCT01110011 10117 20044 58007 $

KLIT 251653Z 09007KT 10SM FEW100 BKN130 BKN250 10/01 A3016 RMK AO2 SLP215T01000006 $

KLIT 251553Z 10007KT 10SM BKN130 BKN250 09/02 A3016 RMK AO2 SLP215 T00890017 $

KLIT 251453Z 08006KT 10SM SCT130 BKN250 08/03 A3015 RMK AO2 SLP211 T0083003351017 $

KLIT 251353Z 04006KT 10SM BKN130 BKN250 07/04 A3014 RMK AO2 SLP207 T00670039 $

KLIT 251253Z 11003KT 10SM BKN120 BKN250 06/02 A3012 RMK AO2 SLP203 T00560022 $

KLIT 251153Z 04005KT 10SM SCT120 BKN250 05/03 A3010 RMK AO2 SLP195 70156T00500028 10111 20050 53020 $

KLIT 251053Z 05004KT 10SM SCT120 OVC250 07/05 A3008 RMK AO2 SLP189 T00720050 $

KLIT 250953Z 36005KT 10SM SCT120 BKN250 07/05 A3005 RMK AO2 SLP176 T00670050 $

KLIT 250853Z 33007KT 10SM SCT250 08/06 A3004 RMK AO2 SLP173 T00830056 51012 $

KLIT 250753Z 30010KT 10SM SCT250 09/06 A3004 RMK AO2 SLP172 T00940061 $

KLIT 250653Z 29014G19KT 10SM SCT250 11/08 A3002 RMK AO2 SLP167 T01060078 $

KLIT 250553Z 28008KT 10SM FEW120 11/09 A3000 RMK AO2 SLP161 60012 T0111008910161 20111 402220111 51036 $

KLIT 250453Z 28008KT 10SM SCT120 12/09 A2998 RMK AO2 SLP154 T01170089 $

KLIT 250353Z 29012G21KT 10SM BKN120 12/10 A2995 RMK AO2 PK WND 30026/0323 SLP143T01220100 $